createdAt,value
2019-02-21T01:04:58.730Z,101134.17
2019-02-21T01:07:44.115Z,101137.64
2019-02-21T01:10:29.510Z,101138.64
2019-02-21T01:13:15.255Z,101129.83
2019-02-21T01:16:00.536Z,101141.38
2019-02-21T01:18:46.855Z,101141.71
2019-02-21T01:21:33.076Z,101139.95
2019-02-21T01:24:18.394Z,101141.13
2019-02-21T01:27:03.726Z,101139.80
2019-02-21T01:29:49.381Z,101137.48
2019-02-21T01:32:34.760Z,101141.30
2019-02-21T01:35:20.186Z,101139.36
2019-02-21T01:38:06.051Z,101139.81
2019-02-21T01:40:51.696Z,101141.91
2019-02-21T01:43:37.003Z,101142.03
2019-02-21T01:46:22.727Z,101146.90
2019-02-21T01:49:08.210Z,101147.41
2019-02-21T01:51:53.483Z,101143.94
2019-02-21T01:54:39.287Z,101144.17
2019-02-21T01:57:24.815Z,101144.57
2019-02-21T02:00:10.918Z,101145.86
2019-02-21T02:02:57.020Z,101142.12
2019-02-21T02:05:42.697Z,101150.70
2019-02-21T02:08:28.006Z,101144.48
2019-02-21T02:11:15.621Z,101145.77
2019-02-21T02:14:01.154Z,101151.70
2019-02-21T02:16:46.643Z,101146.30
2019-02-21T02:19:32.254Z,101151.94
2019-02-21T02:22:17.683Z,101152.41
2019-02-21T02:25:03.179Z,101149.59
2019-02-21T02:27:48.923Z,101149.92
2019-02-21T02:30:34.613Z,101150.55
2019-02-21T02:33:20.027Z,101161.21
2019-02-21T02:36:05.591Z,101161.50
2019-02-21T02:38:51.004Z,101158.84
2019-02-21T02:41:36.340Z,101156.39
2019-02-21T02:44:22.318Z,101162.08
2019-02-21T02:47:07.962Z,101152.72
2019-02-21T02:49:53.716Z,101150.33
2019-02-21T02:52:39.709Z,101150.88
2019-02-21T02:55:25.159Z,101149.37
2019-02-21T02:58:10.555Z,101150.98
2019-02-21T03:00:56.494Z,101155.47
2019-02-21T03:03:42.078Z,101154.64
2019-02-21T03:06:27.971Z,101156.03
2019-02-21T03:09:13.613Z,101160.75
2019-02-21T03:11:59.120Z,101153.07
2019-02-21T03:14:44.417Z,101153.35
2019-02-21T03:17:30.197Z,101154.91
2019-02-21T03:20:15.877Z,101151.44
2019-02-21T03:23:01.171Z,101161.60
2019-02-21T03:25:46.951Z,101161.63
2019-02-21T03:28:32.359Z,101162.53
2019-02-21T03:31:17.757Z,101157.32
2019-02-21T03:34:03.585Z,101157.42
2019-02-21T03:36:49.088Z,101157.58
2019-02-21T03:39:35.205Z,101162.79
2019-02-21T03:42:20.815Z,101162.73
2019-02-21T03:45:07.399Z,101162.63
2019-02-21T03:47:53.243Z,101171.38
2019-02-21T03:50:38.929Z,101165.75
2019-02-21T03:53:24.561Z,101169.97
2019-02-21T03:56:10.109Z,101166.16
2019-02-21T03:58:56.039Z,101170.41
2019-02-21T04:01:41.543Z,101165.39
2019-02-21T04:04:27.337Z,101162.03
2019-02-21T04:07:12.951Z,101159.44
2019-02-21T04:09:59.141Z,101164.58
2019-02-21T04:12:45.337Z,101158.11
2019-02-21T04:15:31.388Z,101151.30
2019-02-21T04:18:16.713Z,101154.50
2019-02-21T04:21:02.156Z,101145.32
2019-02-21T04:23:47.925Z,101156.23
2019-02-21T04:26:33.564Z,101152.28
2019-02-21T04:29:19.158Z,101153.21
2019-02-21T04:32:16.021Z,101146.95
2019-02-21T04:34:52.705Z,101146.05
2019-02-21T04:37:38.170Z,101139.11
2019-02-21T04:40:23.960Z,101140.53
2019-02-21T04:43:09.374Z,101146.60
2019-02-21T04:45:54.842Z,101147.58
2019-02-21T04:48:40.459Z,101145.53
2019-02-21T04:51:26.004Z,101144.00
2019-02-21T04:54:11.402Z,101139.58
2019-02-21T04:56:57.106Z,101126.09
2019-02-21T04:59:42.542Z,101126.09
2019-02-21T05:02:29.510Z,101136.83
2019-02-21T05:05:15.608Z,101136.83
2019-02-21T05:08:04.117Z,101135.13
2019-02-21T05:10:49.459Z,101140.72
2019-02-21T05:13:35.503Z,101140.72
2019-02-21T05:16:33.712Z,101142.37
2019-02-21T05:19:22.543Z,101147.94
2019-02-21T05:22:08.542Z,101131.98
2019-02-21T05:24:53.918Z,101131.98
2019-02-21T05:27:45.392Z,101138.11
2019-02-21T05:30:30.967Z,101132.59
2019-02-21T05:33:34.879Z,101134.75
2019-02-21T05:36:40.000Z,101134.30
2019-02-21T05:39:37.980Z,101141.02
2019-02-21T05:42:41.799Z,101141.02
2019-02-21T05:45:42.202Z,101133.31
2019-02-21T05:48:53.790Z,101132.63
2019-02-21T05:51:47.639Z,101135.58
2019-02-21T05:54:38.232Z,101128.02
2019-02-21T05:57:32.840Z,101137.42
2019-02-21T06:00:41.040Z,101139.39
2019-02-21T06:03:46.210Z,101140.34
2019-02-21T06:06:51.469Z,101139.66
2019-02-21T06:10:06.602Z,101148.34
2019-02-21T06:13:11.726Z,101156.35
2019-02-21T06:16:15.863Z,101155.28
2019-02-21T06:19:20.928Z,101148.45
2019-02-21T06:22:16.474Z,101154.92
2019-02-21T06:25:13.989Z,101158.59
2019-02-21T06:28:04.228Z,101153.76
2019-02-21T06:31:02.086Z,101162.50
2019-02-21T06:33:49.507Z,101160.55
2019-02-21T06:36:35.269Z,101156.82
2019-02-21T06:39:21.475Z,101162.70
2019-02-21T06:42:07.020Z,101166.30
2019-02-21T06:44:53.132Z,101166.02
2019-02-21T06:47:39.120Z,101169.09
2019-02-21T06:50:27.048Z,101176.34
2019-02-21T06:53:12.135Z,101178.58
2019-02-21T06:55:58.475Z,101169.55
2019-02-21T06:58:44.189Z,101181.30
2019-02-21T07:01:29.823Z,101171.25
2019-02-21T07:04:15.784Z,101181.75
2019-02-21T07:07:01.363Z,101184.44
2019-02-21T07:09:46.792Z,101188.98
2019-02-21T07:12:32.621Z,101190.56
2019-02-21T07:15:18.471Z,101189.80
2019-02-21T07:18:03.816Z,101192.64
2019-02-21T07:20:49.495Z,101199.68
2019-02-21T07:23:43.055Z,101204.52
2019-02-21T07:26:22.459Z,101203.19
2019-02-21T07:29:08.110Z,101208.81
2019-02-21T07:31:53.684Z,101210.34
2019-02-21T07:34:39.159Z,101205.06
2019-02-21T07:37:24.989Z,101206.96
2019-02-21T07:40:19.867Z,101210.37
2019-02-21T07:42:58.760Z,101214.55
2019-02-21T07:45:45.000Z,101217.56
2019-02-21T07:48:31.337Z,101226.48
2019-02-21T07:51:16.689Z,101221.91
2019-02-21T07:54:02.588Z,101224.48
2019-02-21T07:56:48.039Z,101222.72
2019-02-21T07:59:33.480Z,101220.78
2019-02-21T08:02:21.015Z,101230.53
2019-02-21T08:05:07.067Z,101236.95
2019-02-21T08:07:52.373Z,101236.41
2019-02-21T08:10:38.577Z,101237.03
2019-02-21T08:13:24.337Z,101229.72
2019-02-21T08:16:12.297Z,101233.36
2019-02-21T08:18:57.488Z,101235.62
2019-02-21T08:21:43.592Z,101233.52
2019-02-21T08:24:29.356Z,101240.38
2019-02-21T08:27:15.077Z,101239.39
2019-02-21T08:30:00.712Z,101244.35
2019-02-21T08:33:12.267Z,101247.50
2019-02-21T08:35:58.081Z,101245.01
2019-02-21T08:38:43.702Z,101243.05
2019-02-21T08:41:29.241Z,101238.05
2019-02-21T08:44:14.934Z,101245.37
2019-02-21T08:47:00.255Z,101253.05
2019-02-21T08:49:45.911Z,101262.55
2019-02-21T08:52:33.097Z,101256.12
2019-02-21T08:55:18.401Z,101257.17
2019-02-21T08:58:03.775Z,101262.88
2019-02-21T09:00:49.089Z,101263.22
2019-02-21T09:03:34.516Z,101269.36
2019-02-21T09:06:19.965Z,101262.45
2019-02-21T09:09:05.519Z,101257.19
2019-02-21T09:11:53.855Z,101260.18
2019-02-21T09:14:39.926Z,101271.37
2019-02-21T09:17:25.325Z,101272.03
2019-02-21T09:20:10.877Z,101267.30
2019-02-21T09:22:56.837Z,101276.78
2019-02-21T09:25:42.401Z,101275.77
2019-02-21T09:28:28.209Z,101274.05
2019-02-21T09:31:13.945Z,101278.16
2019-02-21T09:33:59.460Z,101287.97
2019-02-21T09:36:45.413Z,101287.87
2019-02-21T09:39:31.289Z,101292.50
2019-02-21T09:42:17.349Z,101295.59
2019-02-21T09:45:03.521Z,101289.26
2019-02-21T09:47:49.738Z,101291.63
2019-02-21T09:50:35.224Z,101303.48
2019-02-21T09:53:20.636Z,101306.80
2019-02-21T09:56:06.764Z,101312.52
2019-02-21T09:58:52.384Z,101308.73
2019-02-21T10:01:38.534Z,101305.73
2019-02-21T10:04:31.862Z,101303.03
2019-02-21T10:07:12.013Z,101303.94
2019-02-21T10:09:57.990Z,101301.23
2019-02-21T10:12:46.187Z,101301.00
2019-02-21T10:15:32.191Z,101296.39
2019-02-21T10:18:17.657Z,101292.01
2019-02-21T10:21:04.625Z,101292.36
2019-02-21T10:23:50.757Z,101294.92
2019-02-21T10:26:38.067Z,101296.58
2019-02-21T10:29:23.670Z,101302.31
2019-02-21T10:32:09.385Z,101298.95
2019-02-21T10:34:55.156Z,101304.31
2019-02-21T10:37:40.512Z,101293.78
2019-02-21T10:40:26.340Z,101289.06
2019-02-21T10:43:11.865Z,101282.19
2019-02-21T10:46:00.075Z,101282.79
2019-02-21T10:48:45.823Z,101283.94
2019-02-21T10:51:31.601Z,101288.27
2019-02-21T10:54:16.883Z,101289.98
2019-02-21T10:57:02.852Z,101286.94
2019-02-21T10:59:48.719Z,101276.09
2019-02-21T11:02:34.339Z,101274.48
2019-02-21T11:05:20.707Z,101283.23
2019-02-21T11:08:06.046Z,101273.69
2019-02-21T11:10:52.227Z,101271.48
2019-02-21T11:13:39.183Z,101265.91
2019-02-21T11:16:24.548Z,101264.57
2019-02-21T11:19:10.081Z,101265.94
2019-02-21T11:21:56.308Z,101264.11
2019-02-21T11:24:42.220Z,101258.60
2019-02-21T11:27:27.636Z,101262.95
2019-02-21T11:30:15.137Z,101262.06
2019-02-21T11:33:00.756Z,101256.88
2019-02-21T11:35:46.807Z,101256.89
2019-02-21T11:38:32.461Z,101262.08
2019-02-21T11:41:18.308Z,101261.67
2019-02-21T11:44:04.281Z,101251.69
2019-02-21T11:46:50.178Z,101259.80
2019-02-21T11:49:36.252Z,101253.31
2019-02-21T11:52:22.127Z,101253.61
2019-02-21T11:55:08.814Z,101253.55
2019-02-21T11:57:54.383Z,101250.22
2019-02-21T12:00:44.374Z,101249.30
2019-02-21T12:03:30.154Z,101253.86
2019-02-21T12:06:15.715Z,101253.73
2019-02-21T12:09:01.595Z,101248.42
2019-02-21T12:11:47.035Z,101251.56
2019-02-21T12:14:33.023Z,101246.88
2019-02-21T12:17:19.171Z,101252.98
2019-02-21T12:20:06.852Z,101256.71
2019-02-21T12:22:52.435Z,101257.02
2019-02-21T12:25:58.726Z,101259.62
2019-02-21T12:28:45.649Z,101255.57
2019-02-21T12:31:33.575Z,101270.38
2019-02-21T12:34:19.633Z,101263.41
2019-02-21T12:37:05.118Z,101257.73
2019-02-21T12:39:51.276Z,101245.22
2019-02-21T12:42:37.010Z,101253.43
2019-02-21T12:45:22.853Z,101246.53
2019-02-21T12:48:08.667Z,101249.09
2019-02-21T12:50:54.500Z,101253.42
2019-02-21T12:53:40.397Z,101259.05
2019-02-21T12:56:26.430Z,101256.03
2019-02-21T12:59:11.869Z,101252.12
2019-02-21T13:01:58.078Z,101247.78
2019-02-21T13:04:44.549Z,101246.96
2019-02-21T13:07:29.955Z,101256.00
2019-02-21T13:10:19.151Z,101263.82
2019-02-21T13:13:05.314Z,101262.95
2019-02-21T13:15:51.036Z,101263.36
2019-02-21T13:18:36.656Z,101265.10
2019-02-21T13:21:23.043Z,101263.80
2019-02-21T13:24:08.464Z,101269.83
2019-02-21T13:26:56.240Z,101272.46
2019-02-21T13:29:42.387Z,101262.96
2019-02-21T13:32:27.930Z,101257.77
2019-02-21T13:35:14.506Z,101256.47
2019-02-21T13:38:00.824Z,101254.28
2019-02-21T13:40:46.404Z,101259.49
2019-02-21T13:43:31.748Z,101253.45
2019-02-21T13:46:17.554Z,101250.41
2019-02-21T13:49:02.926Z,101237.86
2019-02-21T13:51:48.721Z,101245.22
2019-02-21T13:54:34.588Z,101245.65
2019-02-21T13:57:19.975Z,101245.62
2019-02-21T14:00:08.225Z,101246.52
2019-02-21T14:02:54.177Z,101239.14
2019-02-21T14:05:39.567Z,101252.12
2019-02-21T14:08:25.991Z,101251.64
2019-02-21T14:11:11.403Z,101255.14
2019-02-21T14:13:56.845Z,101253.38
2019-02-21T14:16:46.738Z,101257.67
2019-02-21T14:19:31.168Z,101260.73
2019-02-21T14:22:16.949Z,101269.88
2019-02-21T14:25:03.560Z,101263.38
2019-02-21T14:27:49.902Z,101267.27
2019-02-21T14:30:35.785Z,101267.70
2019-02-21T14:33:21.638Z,101271.13
2019-02-21T14:36:15.229Z,101269.40
2019-02-21T14:38:54.973Z,101264.23
2019-02-21T14:41:44.047Z,101265.96
2019-02-21T14:44:31.301Z,101265.97
2019-02-21T14:47:17.132Z,101265.96
2019-02-21T14:50:05.997Z,101262.52
2019-02-21T14:52:51.334Z,101267.27
2019-02-21T14:55:36.741Z,101271.59
2019-02-21T14:58:22.514Z,101269.02
2019-02-21T15:01:08.119Z,101273.34
2019-02-21T15:03:53.845Z,101276.80
2019-02-21T15:06:39.634Z,101279.38
2019-02-21T15:09:24.987Z,101284.13
2019-02-21T15:12:11.882Z,101281.54
2019-02-21T15:14:58.166Z,101281.98
2019-02-21T15:17:43.693Z,101274.20
2019-02-21T15:20:36.938Z,101284.14
2019-02-21T15:23:16.486Z,101291.92
2019-02-21T15:26:02.039Z,101285.44
2019-02-21T15:28:47.549Z,101289.33
2019-02-21T15:31:32.965Z,101286.33
2019-02-21T15:34:20.976Z,101288.89
2019-02-21T15:37:07.032Z,101288.44
2019-02-21T15:39:52.570Z,101291.91
2019-02-21T15:42:38.261Z,101288.48
2019-02-21T15:45:24.399Z,101291.08
2019-02-21T15:48:10.355Z,101296.67
2019-02-21T15:50:56.457Z,101290.64
2019-02-21T15:53:41.983Z,101288.92
2019-02-21T15:56:27.507Z,101294.53
2019-02-21T15:59:13.812Z,101301.03
2019-02-21T16:01:59.358Z,101301.89
2019-02-21T16:04:45.262Z,101302.30
2019-02-21T16:07:31.341Z,101297.98
2019-02-21T16:10:18.814Z,101298.00
2019-02-21T16:13:19.418Z,101305.32
2019-02-21T16:16:05.963Z,101306.62
2019-02-21T16:18:51.865Z,101307.07
2019-02-21T16:21:37.904Z,101309.20
2019-02-21T16:24:23.564Z,101321.33
2019-02-21T16:27:09.607Z,101312.23
2019-02-21T16:29:55.876Z,101320.86
2019-02-21T16:32:41.574Z,101316.55
2019-02-21T16:35:27.569Z,101313.95
2019-02-21T16:38:16.541Z,101304.44
2019-02-21T16:41:02.296Z,101309.16
2019-02-21T16:43:47.659Z,101307.42
2019-02-21T16:46:43.439Z,101305.66
2019-02-21T16:49:43.041Z,101310.47
2019-02-21T16:52:29.205Z,101308.27
2019-02-21T16:55:16.264Z,101301.78
2019-02-21T16:58:01.927Z,101307.86
2019-02-21T17:00:52.774Z,101317.75
2019-02-21T17:03:35.272Z,101326.41
2019-02-21T17:06:20.662Z,101327.64
2019-02-21T17:09:07.838Z,101321.11
2019-02-21T17:11:53.624Z,101323.75
2019-02-21T17:14:41.388Z,101327.14
2019-02-21T17:17:27.496Z,101336.64
2019-02-21T17:20:14.881Z,101341.76
2019-02-21T17:23:00.580Z,101346.10
2019-02-21T17:25:53.691Z,101354.27
2019-02-21T17:28:40.440Z,101345.66
2019-02-21T17:31:26.341Z,101347.78
2019-02-21T17:34:12.697Z,101348.14
2019-02-21T17:37:00.734Z,101346.93
2019-02-21T17:39:46.015Z,101348.63
2019-02-21T17:42:31.451Z,101346.59
2019-02-21T17:45:17.998Z,101352.50
2019-02-21T17:48:03.840Z,101360.17
2019-02-21T17:50:55.344Z,101361.57
2019-02-21T17:53:41.277Z,101365.02
2019-02-21T17:56:27.423Z,101371.01
2019-02-21T17:59:13.677Z,101376.99
2019-02-21T18:02:05.423Z,101381.34
2019-02-21T18:04:51.949Z,101386.53
2019-02-21T18:07:37.901Z,101386.02
2019-02-21T18:10:33.953Z,101385.25
2019-02-21T18:13:20.449Z,101391.74
2019-02-21T18:16:07.145Z,101397.82
2019-02-21T18:18:52.845Z,101396.00
2019-02-21T18:21:39.936Z,101404.19
2019-02-21T18:24:26.574Z,101402.02
2019-02-21T18:27:13.820Z,101401.56
2019-02-21T18:29:59.456Z,101408.51
2019-02-21T18:32:47.031Z,101414.13
2019-02-21T18:35:33.123Z,101419.42
2019-02-21T18:38:19.006Z,101420.59
2019-02-21T18:41:05.236Z,101431.70
2019-02-21T18:43:51.089Z,101424.77
2019-02-21T18:46:56.587Z,101432.98
2019-02-21T18:49:43.037Z,101434.31
2019-02-21T18:52:28.854Z,101436.51
2019-02-21T18:55:18.051Z,101433.53
2019-02-21T18:58:03.772Z,101439.93
2019-02-21T19:00:49.917Z,101443.95
2019-02-21T19:03:36.855Z,101440.92
2019-02-21T19:06:22.966Z,101441.42
2019-02-21T19:09:09.289Z,101439.22
2019-02-21T19:11:55.013Z,101442.01
2019-02-21T19:14:41.451Z,101449.22
2019-02-21T19:17:27.617Z,101456.91
2019-02-21T19:20:13.612Z,101459.09
2019-02-21T19:22:59.572Z,101457.08
2019-02-21T19:25:45.356Z,101453.37
2019-02-21T19:28:33.585Z,101451.78
2019-02-21T19:31:19.294Z,101454.39
2019-02-21T19:40:50.921Z,101460.65
2019-02-21T19:43:36.657Z,101461.94
2019-02-21T19:46:22.677Z,101472.13
2019-02-21T19:49:08.608Z,101476.88
2019-02-21T19:51:55.329Z,101484.13
2019-02-21T19:54:40.786Z,101488.73
2019-02-21T19:57:26.961Z,101490.63
2019-02-21T20:00:15.721Z,101496.77
2019-02-21T20:03:02.315Z,101509.36
2019-02-21T20:05:47.830Z,101507.42
2019-02-21T20:08:33.861Z,101510.12
2019-02-21T20:11:26.757Z,101515.76
2019-02-21T20:14:22.141Z,101520.81
2019-02-21T20:17:08.716Z,101521.30
2019-02-21T20:19:54.722Z,101521.73
2019-02-21T20:22:40.438Z,101530.59
2019-02-21T20:25:25.869Z,101525.45
2019-02-21T20:28:11.291Z,101530.12
2019-02-21T20:30:59.664Z,101528.17
2019-02-21T20:33:45.250Z,101532.54
2019-02-21T20:36:31.335Z,101528.95
2019-02-21T20:39:17.714Z,101528.31
2019-02-21T20:42:06.213Z,101532.94
2019-02-21T20:44:51.568Z,101539.88
2019-02-21T20:47:40.539Z,101541.19
2019-02-21T20:50:27.321Z,101539.42
2019-02-21T20:53:13.056Z,101531.87
2019-02-21T20:55:58.885Z,101546.59
2019-02-21T20:58:44.381Z,101552.97
2019-02-21T21:01:29.731Z,101555.00
2019-02-21T21:04:16.306Z,101557.77
2019-02-21T21:07:02.098Z,101559.01
2019-02-21T21:09:47.564Z,101557.27
2019-02-21T21:12:32.995Z,101552.62
2019-02-21T21:15:18.554Z,101549.19
2019-02-21T21:18:04.322Z,101556.08
2019-02-21T21:20:50.045Z,101555.55
2019-02-21T21:23:35.475Z,101557.94
2019-02-21T21:26:23.027Z,101555.61
2019-02-21T21:29:09.052Z,101563.70
2019-02-21T21:31:54.614Z,101564.01
2019-02-21T21:34:39.932Z,101565.36
2019-02-21T21:37:25.800Z,101565.91
2019-02-21T21:40:12.033Z,101575.35
2019-02-21T21:42:57.512Z,101577.35
2019-02-21T21:45:43.462Z,101575.35
2019-02-21T21:48:29.410Z,101578.91
2019-02-21T21:51:17.052Z,101578.09
2019-02-21T21:54:03.105Z,101586.20
2019-02-21T21:56:48.407Z,101585.08
2019-02-21T21:59:33.846Z,101579.31
2019-02-21T22:02:19.621Z,101588.08
2019-02-21T22:05:06.979Z,101594.82
2019-02-21T22:07:52.458Z,101593.14
2019-02-21T22:10:39.061Z,101602.96
2019-02-21T22:13:24.669Z,101604.77
2019-02-21T22:16:10.754Z,101602.09
2019-02-21T22:18:56.646Z,101610.60
2019-02-21T22:21:42.064Z,101613.19
2019-02-21T22:24:27.530Z,101615.09
2019-02-21T22:27:13.430Z,101612.15
2019-02-21T22:29:58.882Z,101623.37
2019-02-21T22:32:44.587Z,101623.05
2019-02-21T22:35:30.335Z,101610.91
2019-02-21T22:38:16.410Z,101613.77
2019-02-21T22:41:01.722Z,101606.89
2019-02-21T22:43:47.695Z,101612.57
2019-02-21T22:46:33.090Z,101616.05
2019-02-21T22:49:18.507Z,101616.52
2019-02-21T22:52:04.333Z,101618.55
2019-02-21T22:54:49.828Z,101616.39
2019-02-21T22:57:35.231Z,101618.38
2019-02-21T23:01:01.381Z,101623.23
2019-02-21T23:03:59.550Z,101629.47
2019-02-21T23:07:06.401Z,101635.91
2019-02-21T23:09:52.022Z,101628.99
2019-02-21T23:12:37.495Z,101629.86
2019-02-21T23:15:24.490Z,101631.44
2019-02-21T23:18:12.170Z,101642.94
2019-02-21T23:20:58.299Z,101640.78
2019-02-21T23:23:44.163Z,101646.06
2019-02-21T23:26:29.754Z,101639.91
2019-02-21T23:29:16.145Z,101643.66
2019-02-21T23:32:03.311Z,101649.45
2019-02-21T23:34:50.139Z,101651.95
2019-02-21T23:37:35.709Z,101648.83
2019-02-21T23:40:21.867Z,101649.70
2019-02-21T23:43:07.414Z,101646.36
2019-02-21T23:45:52.795Z,101655.31
2019-02-21T23:48:39.344Z,101653.81
2019-02-21T23:51:25.005Z,101655.41
2019-02-21T23:54:10.301Z,101660.06
2019-02-21T23:56:56.154Z,101664.71
2019-02-21T23:59:42.089Z,101671.47
